Time;durP1;ratioP1;P1;durP2;ratioP2;P2;SDS_P1;SDS_P2;PMS_P1;PMS_P2;Temp;Humidity;BMP_temperature;BMP_pressure;BME280_temperature;BME280_humidity;BME280_pressure;Samples;Min_cycle;Max_cycle;Signal;HPM_P1;HPM_P2
2023/07/02 00:00:01;;;;;;;4.38;3.58;;;16.90;99.90;;;;;;5067927;28;20146;-63
2023/07/02 00:02:37;;;;;;;3.97;3.60;;;16.90;99.90;;;;;;5066510;28;20122;-65
2023/07/02 00:05:05;;;;;;;;;;;16.80;99.90;;;;;;5049972;28;20075;-66
2023/07/02 00:07:34;;;;;;;7.57;5.60;;;16.80;99.90;;;;;;5067471;28;19924;-65
2023/07/02 00:10:01;;;;;;;3.90;3.28;;;16.90;99.90;;;;;;5064935;28;20052;-64
2023/07/02 00:12:28;;;;;;;6.28;4.75;;;16.90;99.90;;;;;;5067106;28;20056;-63
2023/07/02 00:14:55;;;;;;;3.38;3.08;;;16.90;99.90;;;;;;5066457;28;20040;-64
2023/07/02 00:17:22;;;;;;;3.72;3.35;;;16.90;99.90;;;;;;5067079;28;20044;-65
2023/07/02 00:19:51;;;;;;;4.38;3.53;;;16.90;99.90;;;;;;5065973;28;20482;-64
2023/07/02 00:22:19;;;;;;;4.63;3.42;;;16.90;99.90;;;;;;5066826;28;20055;-65
2023/07/02 00:24:46;;;;;;;4.97;3.90;;;16.90;99.90;;;;;;5067204;28;20409;-65
2023/07/02 00:27:13;;;;;;;5.15;3.30;;;16.90;99.90;;;;;;5066790;28;20128;-64
2023/07/02 00:29:40;;;;;;;4.70;3.63;;;16.90;99.90;;;;;;5067534;28;20055;-65
2023/07/02 00:32:06;;;;;;;10.27;5.18;;;16.80;99.90;;;;;;5047322;28;20084;-63
2023/07/02 00:34:33;;;;;;;3.25;2.95;;;16.80;99.90;;;;;;5048775;28;21339;-65
2023/07/02 00:37:00;;;;;;;3.38;3.08;;;16.90;99.90;;;;;;5067067;28;20044;-64
2023/07/02 00:39:27;;;;;;;4.10;3.65;;;16.80;99.90;;;;;;5067058;28;20123;-63
2023/07/02 00:41:59;;;;;;;4.47;3.30;;;16.90;99.90;;;;;;5046880;28;20506;-63
2023/07/02 00:44:26;;;;;;;3.28;2.72;;;16.80;99.90;;;;;;5047617;28;20052;-64
2023/07/02 00:46:53;;;;;;;2.47;2.35;;;16.80;99.90;;;;;;5066530;28;20036;-64
2023/07/02 00:49:20;;;;;;;3.22;2.92;;;16.90;99.90;;;;;;5066358;28;20378;-65
2023/07/02 00:51:47;;;;;;;4.60;2.90;;;16.80;99.90;;;;;;5045342;28;20501;-63
2023/07/02 00:54:14;;;;;;;6.80;3.03;;;16.80;99.90;;;;;;5066581;28;20563;-64
2023/07/02 00:56:41;;;;;;;3.05;2.22;;;16.90;99.90;;;;;;5066489;28;20044;-63
2023/07/02 00:59:08;;;;;;;4.03;2.85;;;16.90;99.90;;;;;;5068020;28;20405;-63
2023/07/02 01:01:37;;;;;;;2.50;2.30;;;16.90;99.90;;;;;;5069783;28;20497;-65
2023/07/02 01:04:09;;;;;;;4.65;2.80;;;16.80;99.90;;;;;;5070430;28;20781;-64
2023/07/02 01:06:40;;;;;;;4.53;2.40;;;16.90;99.90;;;;;;5052153;28;20052;-68
2023/07/02 01:09:09;;;;;;;2.60;2.40;;;16.80;99.90;;;;;;5069702;28;20052;-65
2023/07/02 01:11:45;;;;;;;2.70;2.50;;;16.80;99.90;;;;;;5069557;28;20052;-63
2023/07/02 01:14:21;;;;;;;3.28;2.45;;;16.80;99.90;;;;;;5050860;28;20052;-63
2023/07/02 01:16:50;;;;;;;3.20;2.88;;;16.80;99.90;;;;;;5069981;28;20071;-63
2023/07/02 01:19:40;;;;;;;3.83;3.47;;;16.70;99.90;;;;;;5052135;28;20036;-64
2023/07/02 01:22:08;;;;;;;4.93;2.53;;;16.70;99.90;;;;;;5070841;28;20054;-63
2023/07/02 01:24:36;;;;;;;2.70;2.17;;;16.70;99.90;;;;;;5069263;28;20499;-64
2023/07/02 01:27:03;;;;;;;3.53;2.10;;;16.70;99.90;;;;;;5070477;28;20147;-63
2023/07/02 01:29:30;;;;;;;2.22;2.10;;;16.70;99.90;;;;;;5068552;28;20541;-63
2023/07/02 01:31:57;;;;;;;2.05;1.90;;;16.70;99.90;;;;;;5069427;28;20094;-65
2023/07/02 01:34:24;;;;;;;3.97;2.22;;;16.60;99.90;;;;;;5069575;28;20040;-67
2023/07/02 01:36:51;;;;;;;2.95;2.70;;;16.60;99.90;;;;;;5069941;28;20063;-65
2023/07/02 01:39:18;;;;;;;2.90;2.28;;;16.50;99.90;;;;;;5050677;28;20055;-67
2023/07/02 01:41:51;;;;;;;2.40;2.25;;;16.60;99.90;;;;;;5068619;28;20446;-66
2023/07/02 01:44:19;;;;;;;3.13;2.30;;;16.50;99.90;;;;;;5059308;28;20044;-64
2023/07/02 01:46:49;;;;;;;4.43;3.00;;;16.60;99.90;;;;;;5067105;28;20032;-62
2023/07/02 01:49:17;;;;;;;;;;;16.50;99.90;;;;;;5068220;28;20086;-65
2023/07/02 01:51:55;;;;;;;2.72;2.55;;;16.50;99.90;;;;;;5051064;28;19997;-66
2023/07/02 01:54:24;;;;;;;3.42;2.30;;;16.50;99.90;;;;;;5069303;28;20058;-66
2023/07/02 01:56:51;;;;;;;2.67;2.47;;;16.50;99.90;;;;;;5069673;28;20497;-65
2023/07/02 01:59:18;;;;;;;2.72;2.53;;;16.50;99.90;;;;;;5050872;28;21063;-64
2023/07/02 02:01:45;;;;;;;3.40;2.30;;;16.50;99.90;;;;;;5067765;28;20376;-65
2023/07/02 02:04:13;;;;;;;2.33;1.67;;;16.50;99.90;;;;;;5069788;28;20811;-63
2023/07/02 02:06:40;;;;;;;2.45;1.90;;;16.50;99.90;;;;;;5051294;28;20052;-63
2023/07/02 02:09:09;;;;;;;2.20;1.88;;;16.50;99.90;;;;;;5058806;28;20603;-63
2023/07/02 02:11:41;;;;;;;5.75;2.60;;;16.50;99.90;;;;;;5049870;28;20052;-64
2023/07/02 02:14:08;;;;;;;3.00;2.08;;;16.50;99.90;;;;;;5067257;28;20043;-64
2023/07/02 02:16:35;;;;;;;2.17;2.00;;;16.50;99.90;;;;;;5069293;28;20601;-66
2023/07/02 02:19:03;;;;;;;2.92;2.15;;;16.50;99.90;;;;;;5067698;28;20974;-63
2023/07/02 02:21:30;;;;;;;3.10;2.72;;;16.50;99.90;;;;;;5068554;28;20760;-63
2023/07/02 02:23:58;;;;;;;3.20;2.03;;;16.50;99.90;;;;;;5068242;28;20063;-64
2023/07/02 02:26:26;;;;;;;1.90;1.65;;;16.60;99.90;;;;;;5068603;28;20126;-65
2023/07/02 02:28:53;;;;;;;4.30;2.25;;;16.60;99.90;;;;;;5069088;28;20051;-64
2023/07/02 02:31:20;;;;;;;4.53;2.65;;;16.60;99.90;;;;;;5051538;28;20040;-64
2023/07/02 02:33:48;;;;;;;2.83;1.95;;;16.60;99.90;;;;;;5047817;28;20105;-66
2023/07/02 02:36:17;;;;;;;2.45;2.30;;;16.60;99.90;;;;;;5049393;28;20382;-63
2023/07/02 02:38:44;;;;;;;1.95;1.75;;;16.60;99.90;;;;;;5051285;28;20101;-65
2023/07/02 02:41:11;;;;;;;1.98;1.83;;;16.60;99.90;;;;;;5049087;28;20198;-67
2023/07/02 02:43:43;;;;;;;2.78;1.85;;;16.70;99.90;;;;;;5047096;28;20122;-64
2023/07/02 02:46:22;;;;;;;2.30;2.13;;;16.70;99.90;;;;;;5049090;28;20076;-65
2023/07/02 02:48:51;;;;;;;3.17;1.92;;;16.70;99.90;;;;;;5048466;28;21064;-63
2023/07/02 02:51:18;;;;;;;2.22;2.03;;;16.70;99.90;;;;;;5068621;28;20138;-64
2023/07/02 02:53:46;;;;;;;2.83;2.00;;;16.70;99.90;;;;;;5068775;28;20054;-64
2023/07/02 02:56:13;;;;;;;6.00;2.00;;;16.80;99.90;;;;;;5068049;28;20075;-64
2023/07/02 02:58:40;;;;;;;2.72;2.47;;;16.80;99.90;;;;;;5066246;28;20063;-64
2023/07/02 03:01:10;;;;;;;2.38;2.17;;;16.80;99.90;;;;;;5057009;28;20051;-65
2023/07/02 03:03:39;;;;;;;3.40;2.83;;;16.80;99.90;;;;;;5063822;28;20048;-64
2023/07/02 03:06:06;;;;;;;2.08;1.88;;;16.80;99.90;;;;;;5067041;28;20055;-64
2023/07/02 03:08:33;;;;;;;2.63;2.42;;;16.80;99.90;;;;;;5049440;28;20589;-67
2023/07/02 03:11:00;;;;;;;2.03;1.92;;;16.80;99.90;;;;;;5067780;28;20040;-64
2023/07/02 03:13:27;;;;;;;5.03;2.08;;;16.80;99.90;;;;;;5067390;28;20040;-63
2023/07/02 03:15:53;;;;;;;2.60;2.40;;;16.80;99.90;;;;;;5065816;28;20551;-68
2023/07/02 03:18:20;;;;;;;2.63;2.40;;;16.80;99.90;;;;;;5067751;28;20052;-63
2023/07/02 03:20:47;;;;;;;2.13;1.98;;;16.80;99.90;;;;;;5047130;28;20048;-65
2023/07/02 03:23:15;;;;;;;4.28;3.88;;;16.80;99.90;;;;;;5067607;28;20489;-66
2023/07/02 03:25:41;;;;;;;3.28;2.72;;;16.80;99.90;;;;;;5067875;28;20779;-64
2023/07/02 03:28:08;;;;;;;3.42;3.13;;;16.80;99.90;;;;;;5067766;28;20086;-63
2023/07/02 03:30:35;;;;;;;4.05;3.75;;;16.80;99.90;;;;;;5068106;28;20044;-63
2023/07/02 03:33:02;;;;;;;3.22;2.95;;;16.80;99.90;;;;;;5066641;28;20048;-64
2023/07/02 03:35:29;;;;;;;4.45;3.33;;;16.80;99.90;;;;;;5067185;28;20046;-66
2023/07/02 03:37:57;;;;;;;4.65;3.33;;;16.80;99.90;;;;;;5066149;28;20040;-68
2023/07/02 03:40:24;;;;;;;3.92;3.47;;;16.80;99.90;;;;;;5066879;28;20416;-65
2023/07/02 03:42:51;;;;;;;4.38;4.00;;;16.90;99.90;;;;;;5068583;28;20049;-63
2023/07/02 03:45:18;;;;;;;3.85;3.42;;;16.90;99.90;;;;;;5067182;28;20048;-67
2023/07/02 03:47:44;;;;;;;3.75;3.45;;;16.90;99.90;;;;;;5066120;28;20076;-64
2023/07/02 03:50:12;;;;;;;4.57;4.18;;;16.90;99.90;;;;;;5067275;28;20048;-64
2023/07/02 03:52:38;;;;;;;4.30;3.85;;;17.00;99.90;;;;;;5065120;28;20323;-66
2023/07/02 03:55:06;;;;;;;4.65;4.22;;;17.00;99.90;;;;;;5067191;28;20048;-66
2023/07/02 03:57:33;;;;;;;5.38;3.80;;;17.10;99.90;;;;;;5067506;28;20130;-64
2023/07/02 03:59:59;;;;;;;5.15;3.42;;;17.10;99.90;;;;;;5065169;28;20478;-67
2023/07/02 04:02:26;;;;;;;3.75;3.30;;;17.20;99.90;;;;;;5065642;28;20115;-64
2023/07/02 04:04:53;;;;;;;3.45;3.17;;;17.20;99.90;;;;;;5067432;28;20075;-64
2023/07/02 04:07:20;;;;;;;3.90;2.67;;;17.30;99.90;;;;;;5066732;28;20126;-66
2023/07/02 04:09:47;;;;;;;6.85;3.08;;;17.30;99.90;;;;;;5063698;28;20811;-62
2023/07/02 04:12:14;;;;;;;5.75;3.13;;;17.40;99.90;;;;;;5066863;28;20135;-64
2023/07/02 04:14:42;;;;;;;2.65;2.13;;;17.50;99.90;;;;;;5072600;28;20394;-63
2023/07/02 04:17:09;;;;;;;3.08;2.78;;;17.50;99.90;;;;;;5067590;28;20052;-65
2023/07/02 04:19:36;;;;;;;3.35;2.95;;;17.60;99.90;;;;;;5065948;28;20493;-64
2023/07/02 04:22:03;;;;;;;3.33;3.03;;;17.60;99.90;;;;;;5067096;28;20491;-64
2023/07/02 04:24:30;;;;;;;2.92;2.50;;;17.60;99.90;;;;;;5065608;28;20329;-63
2023/07/02 04:26:57;;;;;;;3.08;2.60;;;17.60;99.90;;;;;;5067274;28;20048;-64
2023/07/02 04:29:45;;;;;;;3.05;2.78;;;17.50;99.90;;;;;;5066801;28;20047;-65
2023/07/02 04:32:12;;;;;;;3.25;2.88;;;17.40;99.90;;;;;;5067887;28;20127;-63
2023/07/02 04:34:38;;;;;;;3.35;2.92;;;17.40;99.90;;;;;;5070290;28;20043;-65
2023/07/02 04:37:05;;;;;;;2.58;2.25;;;17.30;99.90;;;;;;5071306;28;20052;-63
2023/07/02 04:39:33;;;;;;;2.28;2.17;;;17.30;99.90;;;;;;5070059;28;20135;-63
2023/07/02 04:42:00;;;;;;;2.30;2.10;;;17.20;99.90;;;;;;5069101;28;20120;-62
2023/07/02 04:44:30;;;;;;;2.53;2.33;;;17.20;99.90;;;;;;5070981;28;20604;-64
2023/07/02 04:47:01;;;;;;;2.70;2.53;;;17.30;99.90;;;;;;5068270;28;20122;-65
2023/07/02 04:49:28;;;;;;;3.60;2.30;;;17.20;99.90;;;;;;5070606;28;20040;-67
2023/07/02 04:51:55;;;;;;;3.72;3.03;;;17.30;99.90;;;;;;5070532;28;20075;-65
2023/07/02 04:54:22;;;;;;;2.67;2.47;;;17.30;99.90;;;;;;5070703;28;20036;-66
2023/07/02 04:56:49;;;;;;;2.00;1.83;;;17.30;99.90;;;;;;5067738;28;20139;-67
2023/07/02 04:59:16;;;;;;;4.20;1.98;;;17.40;99.90;;;;;;5071190;28;20036;-66
2023/07/02 05:01:44;;;;;;;6.47;3.38;;;17.40;99.90;;;;;;5070213;28;20550;-71
2023/07/02 05:04:11;;;;;;;2.90;2.70;;;17.40;99.90;;;;;;5071297;28;20044;-67
2023/07/02 05:06:38;;;;;;;2.13;1.90;;;17.40;99.90;;;;;;5070922;28;20040;-65
2023/07/02 05:09:05;;;;;;;3.10;1.98;;;17.40;99.90;;;;;;5052276;28;20098;-63
2023/07/02 05:11:32;;;;;;;2.13;1.92;;;17.50;99.90;;;;;;5069371;28;20127;-64
2023/07/02 05:13:59;;;;;;;2.78;2.58;;;17.50;99.90;;;;;;5069485;28;20101;-63
2023/07/02 05:16:26;;;;;;;1.92;1.83;;;17.40;99.90;;;;;;5069417;28;20055;-66
2023/07/02 05:18:53;;;;;;;9.43;2.53;;;17.40;99.90;;;;;;5051461;28;20061;-67
2023/07/02 05:21:20;;;;;;;3.15;1.98;;;17.50;99.90;;;;;;5069321;28;20689;-66
2023/07/02 05:23:48;;;;;;;3.60;2.35;;;17.50;99.90;;;;;;5070516;28;20127;-62
2023/07/02 05:26:15;;;;;;;2.13;1.65;;;17.50;99.90;;;;;;5069291;28;20048;-66
2023/07/02 05:28:42;;;;;;;3.05;2.10;;;17.50;99.90;;;;;;5068326;28;20051;-64
2023/07/02 05:31:09;;;;;;;3.45;2.17;;;17.50;99.90;;;;;;5069483;28;20562;-63
2023/07/02 05:33:38;;;;;;;2.78;1.80;;;17.60;99.90;;;;;;5070417;28;20052;-65
2023/07/02 05:36:05;;;;;;;2.75;2.15;;;17.70;99.90;;;;;;5070229;28;20134;-64
2023/07/02 05:38:32;;;;;;;3.88;2.03;;;17.80;99.90;;;;;;5070041;28;20540;-63
2023/07/02 05:40:59;;;;;;;2.88;2.45;;;17.90;99.90;;;;;;5068738;28;20131;-66
2023/07/02 05:43:26;;;;;;;2.60;2.20;;;17.90;99.90;;;;;;5070068;28;20048;-63
2023/07/02 05:45:53;;;;;;;4.63;2.67;;;18.00;99.90;;;;;;5067654;28;20052;-67
2023/07/02 05:48:19;;;;;;;2.28;1.80;;;17.90;99.90;;;;;;5070305;28;20625;-65
2023/07/02 05:50:46;;;;;;;3.08;2.45;;;17.90;99.90;;;;;;5069007;28;20471;-65
2023/07/02 05:53:14;;;;;;;2.13;2.00;;;17.90;99.90;;;;;;5069906;28;20605;-63
2023/07/02 05:55:42;;;;;;;2.85;1.90;;;18.00;99.90;;;;;;5068178;28;20109;-64
2023/07/02 05:58:09;;;;;;;2.10;2.00;;;18.10;99.90;;;;;;5069619;28;20489;-63
2023/07/02 06:00:35;;;;;;;3.00;1.77;;;18.00;99.90;;;;;;5067673;28;20344;-63
2023/07/02 06:03:03;;;;;;;6.43;3.17;;;18.10;99.90;;;;;;5069342;28;20068;-65
2023/07/02 06:05:30;;;;;;;2.53;2.33;;;18.20;99.90;;;;;;5068939;28;20122;-65
2023/07/02 06:07:57;;;;;;;2.70;2.30;;;18.20;99.90;;;;;;5069307;28;20059;-64
2023/07/02 06:10:24;;;;;;;2.40;2.15;;;18.20;99.90;;;;;;5068227;28;20044;-66
2023/07/02 06:12:52;;;;;;;2.75;1.90;;;18.20;99.90;;;;;;5069315;28;20464;-63
2023/07/02 06:15:19;;;;;;;2.33;2.22;;;18.10;99.90;;;;;;5069038;28;20465;-62
2023/07/02 06:17:45;;;;;;;4.43;3.03;;;18.20;99.90;;;;;;5067165;28;20080;-67
2023/07/02 06:20:13;;;;;;;3.90;2.55;;;18.20;99.90;;;;;;5069121;28;20052;-64
2023/07/02 06:22:41;;;;;;;3.58;2.55;;;18.30;99.90;;;;;;5067666;28;20051;-64
2023/07/02 06:25:08;;;;;;;2.40;2.03;;;18.30;99.90;;;;;;5069040;28;20036;-65
2023/07/02 06:27:35;;;;;;;3.28;2.42;;;18.30;99.90;;;;;;5068264;28;20048;-64
2023/07/02 06:30:02;;;;;;;3.42;2.30;;;18.40;99.90;;;;;;5069273;28;20056;-66
2023/07/02 06:32:29;;;;;;;2.03;1.92;;;18.50;99.90;;;;;;5066281;28;20033;-66
2023/07/02 06:34:56;;;;;;;5.20;3.03;;;18.60;99.90;;;;;;5068562;28;20066;-65
2023/07/02 06:37:23;;;;;;;2.25;2.05;;;18.70;99.90;;;;;;5068395;28;20429;-66
2023/07/02 06:39:50;;;;;;;3.80;2.60;;;18.80;99.90;;;;;;5069366;28;20397;-63
2023/07/02 06:42:17;;;;;;;3.50;2.08;;;18.90;99.90;;;;;;5068022;28;20320;-64
2023/07/02 06:44:44;;;;;;;2.42;2.22;;;18.90;99.90;;;;;;5069006;28;20493;-64
2023/07/02 06:47:11;;;;;;;1.92;1.83;;;18.90;99.90;;;;;;5068500;28;20121;-66
2023/07/02 06:49:38;;;;;;;2.75;2.05;;;18.80;99.90;;;;;;5066968;28;20048;-63
2023/07/02 06:52:05;;;;;;;2.20;2.08;;;18.80;99.90;;;;;;5069114;28;20932;-66
2023/07/02 06:54:32;;;;;;;3.30;2.38;;;18.80;99.90;;;;;;5067795;28;20575;-63
2023/07/02 06:56:59;;;;;;;4.75;2.10;;;18.70;99.90;;;;;;5067457;28;20079;-64
2023/07/02 06:59:26;;;;;;;2.15;1.70;;;18.70;99.90;;;;;;5068628;28;20182;-66
2023/07/02 07:01:53;;;;;;;3.88;1.88;;;18.80;99.90;;;;;;5067498;28;20040;-67
2023/07/02 07:04:20;;;;;;;2.80;2.38;;;18.80;99.90;;;;;;5067049;28;20584;-63
2023/07/02 07:06:47;;;;;;;3.63;2.00;;;18.60;99.90;;;;;;5049042;28;20052;-63
2023/07/02 07:09:14;;;;;;;3.80;3.30;;;18.60;99.90;;;;;;5068739;28;20495;-65
2023/07/02 07:11:41;;;;;;;5.30;2.30;;;18.60;99.90;;;;;;5068009;28;20076;-65
2023/07/02 07:14:07;;;;;;;2.90;2.40;;;18.70;99.90;;;;;;5069126;28;20089;-64
2023/07/02 07:16:34;;;;;;;3.20;2.63;;;18.70;99.90;;;;;;5067267;28;20486;-65
2023/07/02 07:19:01;;;;;;;5.63;2.80;;;18.70;99.90;;;;;;5067699;28;20169;-65
2023/07/02 07:21:28;;;;;;;3.53;2.42;;;18.70;99.90;;;;;;5067072;28;20057;-63
2023/07/02 07:23:55;;;;;;;4.70;2.80;;;18.70;99.90;;;;;;5066865;28;20118;-66
2023/07/02 07:26:22;;;;;;;2.83;2.63;;;18.60;99.90;;;;;;5046357;28;20044;-65
2023/07/02 07:28:49;;;;;;;2.88;2.50;;;18.50;99.90;;;;;;5067794;28;20039;-64
2023/07/02 07:31:16;;;;;;;4.10;2.38;;;18.50;99.90;;;;;;5067145;28;20040;-64
2023/07/02 07:33:43;;;;;;;2.92;2.67;;;18.70;99.90;;;;;;5066379;28;20047;-63
2023/07/02 07:36:10;;;;;;;3.47;2.45;;;18.80;99.90;;;;;;5066352;28;20040;-66
2023/07/02 07:38:37;;;;;;;3.13;2.33;;;18.90;99.90;;;;;;5066795;28;20489;-64
2023/07/02 07:41:04;;;;;;;3.78;2.25;;;18.70;99.90;;;;;;5066577;28;20040;-64
2023/07/02 07:43:31;;;;;;;5.22;2.60;;;18.70;99.90;;;;;;5067872;28;20062;-64
2023/07/02 07:45:59;;;;;;;2.92;2.67;;;18.80;99.90;;;;;;5067994;28;20040;-63
2023/07/02 07:48:26;;;;;;;3.15;2.80;;;18.90;99.90;;;;;;5067393;28;20490;-67
2023/07/02 07:50:53;;;;;;;4.72;2.72;;;19.00;99.90;;;;;;5067595;28;20097;-64
2023/07/02 07:53:19;;;;;;;5.80;2.70;;;19.10;99.90;;;;;;5067074;28;20133;-63
2023/07/02 07:55:46;;;;;;;4.40;2.67;;;19.10;99.90;;;;;;5067012;28;20064;-64
2023/07/02 07:58:13;;;;;;;2.85;2.65;;;19.20;99.90;;;;;;5067456;28;20605;-64
2023/07/02 08:00:40;;;;;;;3.60;2.47;;;19.30;99.90;;;;;;5067436;28;20094;-66
2023/07/02 08:03:07;;;;;;;2.42;2.22;;;19.40;99.90;;;;;;5067603;28;20048;-64
2023/07/02 08:05:34;;;;;;;6.90;2.25;;;19.60;99.90;;;;;;5067245;28;20044;-64
2023/07/02 08:08:01;;;;;;;5.03;2.50;;;19.60;99.90;;;;;;5066392;28;20083;-64
2023/07/02 08:10:28;;;;;;;2.30;2.05;;;19.70;99.90;;;;;;5065941;28;20140;-65
2023/07/02 08:12:55;;;;;;;1.95;1.48;;;19.80;99.90;;;;;;5066412;28;20482;-65
2023/07/02 08:15:22;;;;;;;2.22;1.92;;;19.90;99.90;;;;;;5067508;28;20171;-65
2023/07/02 08:17:51;;;;;;;2.33;1.98;;;20.00;99.90;;;;;;5066484;28;20467;-65
2023/07/02 08:20:18;;;;;;;2.17;1.98;;;19.90;99.90;;;;;;5066876;28;20473;-62
2023/07/02 08:22:45;;;;;;;7.80;2.90;;;20.00;99.90;;;;;;5066669;28;20076;-65
2023/07/02 08:25:12;;;;;;;2.33;2.10;;;19.90;99.90;;;;;;5065656;28;20814;-64
2023/07/02 08:27:39;;;;;;;2.78;2.53;;;19.90;99.90;;;;;;5067614;28;20257;-64
2023/07/02 08:30:06;;;;;;;4.38;2.95;;;19.90;99.90;;;;;;5067421;28;20138;-65
2023/07/02 08:32:33;;;;;;;4.18;2.00;;;20.00;99.90;;;;;;5066128;28;20100;-67
2023/07/02 08:35:01;;;;;;;5.13;2.63;;;20.00;99.90;;;;;;5067949;28;20043;-64
2023/07/02 08:37:28;;;;;;;5.20;2.45;;;20.10;99.90;;;;;;5067081;28;20368;-65
2023/07/02 08:39:54;;;;;;;3.72;2.13;;;20.10;99.90;;;;;;5065867;28;20913;-63
2023/07/02 08:42:21;;;;;;;2.35;2.15;;;20.00;99.90;;;;;;5066866;28;20040;-65
2023/07/02 08:44:53;;;;;;;3.30;2.38;;;20.00;99.90;;;;;;5066990;28;20127;-64
2023/07/02 08:47:21;;;;;;;4.55;2.60;;;20.00;99.90;;;;;;5067058;28;20048;-64
2023/07/02 08:49:49;;;;;;;2.88;2.63;;;20.10;99.90;;;;;;5069157;28;20101;-66
2023/07/02 08:52:16;;;;;;;3.70;2.20;;;20.10;99.90;;;;;;5065897;28;20045;-68
2023/07/02 08:54:43;;;;;;;3.95;2.00;;;20.20;99.90;;;;;;5066959;28;21140;-63
2023/07/02 08:57:10;;;;;;;2.85;2.00;;;20.30;99.90;;;;;;5064269;28;20520;-65
2023/07/02 08:59:37;;;;;;;8.60;2.85;;;20.40;99.90;;;;;;5065598;28;20495;-66
2023/07/02 09:02:04;;;;;;;5.68;2.15;;;20.40;99.90;;;;;;5070916;28;20036;-64
2023/07/02 09:04:31;;;;;;;2.63;2.30;;;20.30;99.90;;;;;;5066897;28;20083;-65
2023/07/02 09:07:09;;;;;;;5.05;2.63;;;20.30;99.90;;;;;;5066454;28;20040;-64
2023/07/02 09:09:50;;;;;;;4.88;3.67;;;20.40;99.90;;;;;;5066651;28;20052;-63
2023/07/02 09:12:27;;;;;;;4.72;2.08;;;20.20;99.90;;;;;;5065124;28;20036;-64
2023/07/02 09:15:03;;;;;;;3.70;1.90;;;20.00;99.90;;;;;;5066157;28;20585;-63
2023/07/02 09:17:31;;;;;;;3.70;1.85;;;19.90;99.90;;;;;;5065898;28;20127;-65
2023/07/02 09:20:04;;;;;;;4.20;2.03;;;20.20;99.90;;;;;;5069726;28;20079;-65
2023/07/02 09:22:32;;;;;;;2.72;1.98;;;20.20;99.90;;;;;;5069697;28;20166;-65
2023/07/02 09:25:00;;;;;;;5.88;3.13;;;20.20;99.90;;;;;;5069280;28;20079;-64
2023/07/02 09:27:35;;;;;;;6.07;2.38;;;20.30;99.90;;;;;;5068452;28;20413;-66
2023/07/02 09:30:15;;;;;;;5.10;1.80;;;20.40;99.90;;;;;;5070647;28;20151;-63
2023/07/02 09:32:44;;;;;;;2.58;2.38;;;20.50;99.90;;;;;;5069546;28;20048;-65
2023/07/02 09:35:12;;;;;;;2.95;2.10;;;20.50;99.90;;;;;;5055764;28;20576;-66
2023/07/02 09:37:43;;;;;;;5.88;2.78;;;20.60;99.90;;;;;;5069465;28;20036;-65
2023/07/02 09:40:10;;;;;;;3.13;1.88;;;20.40;99.90;;;;;;5069414;28;20079;-67
2023/07/02 09:42:40;;;;;;;2.80;1.42;;;20.10;99.90;;;;;;5069585;28;20118;-65
2023/07/02 09:45:11;;;;;;;1.92;1.00;;;19.80;99.90;;;;;;5068501;28;20055;-63
2023/07/02 09:47:46;;;;;;;5.07;1.85;;;19.80;99.90;;;;;;5069475;28;20059;-64
2023/07/02 09:50:15;;;;;;;3.00;1.45;;;20.00;99.90;;;;;;5068885;28;20040;-63
2023/07/02 09:52:45;;;;;;;7.28;1.73;;;20.30;99.90;;;;;;5069725;28;20137;-65
2023/07/02 09:55:13;;;;;;;4.18;2.08;;;20.40;99.90;;;;;;5068817;28;20618;-63
2023/07/02 09:57:40;;;;;;;5.43;2.03;;;20.30;99.90;;;;;;5069025;28;20153;-64
2023/07/02 10:00:08;;;;;;;5.45;1.80;;;20.20;99.90;;;;;;5067092;28;20048;-65
2023/07/02 10:02:36;;;;;;;5.57;3.17;;;20.10;99.90;;;;;;5069306;28;20588;-65
2023/07/02 10:05:04;;;;;;;3.80;1.75;;;20.00;99.90;;;;;;5068557;28;20072;-64
2023/07/02 10:07:33;;;;;;;4.13;1.52;;;20.00;99.90;;;;;;5068880;28;20052;-66
2023/07/02 10:10:00;;;;;;;3.15;2.03;;;20.00;99.90;;;;;;5068803;28;20412;-67
2023/07/02 10:12:29;;;;;;;3.47;1.92;;;20.30;99.90;;;;;;5068646;28;20045;-66
2023/07/02 10:14:58;;;;;;;4.53;1.40;;;20.60;99.90;;;;;;5058922;28;20440;-64
2023/07/02 10:17:30;;;;;;;2.30;1.67;;;20.90;99.90;;;;;;5066847;28;20056;-64
2023/07/02 10:20:00;;;;;;;3.55;1.63;;;21.10;99.90;;;;;;5069391;28;20502;-62
2023/07/02 10:22:28;;;;;;;5.72;2.22;;;21.20;99.90;;;;;;5068751;28;20117;-65
2023/07/02 10:25:01;;;;;;;2.30;1.60;;;21.10;99.90;;;;;;5067834;28;20055;-64
2023/07/02 10:27:42;;;;;;;1.50;1.02;;;20.90;99.90;;;;;;5068292;28;20191;-64
2023/07/02 10:30:10;;;;;;;6.25;2.28;;;20.80;99.90;;;;;;5068547;28;20113;-63
2023/07/02 10:32:38;;;;;;;2.20;1.42;;;20.80;99.90;;;;;;5066892;28;20444;-66
2023/07/02 10:35:18;;;;;;;2.38;1.75;;;20.90;99.90;;;;;;5069616;28;20081;-64
2023/07/02 10:37:45;;;;;;;7.10;1.92;;;21.10;99.90;;;;;;5050847;28;20052;-65
2023/07/02 10:40:12;;;;;;;5.15;1.38;;;21.20;99.90;;;;;;5068433;28;20039;-64
2023/07/02 10:42:47;;;;;;;3.85;2.15;;;21.20;99.90;;;;;;5067617;28;20050;-65
2023/07/02 10:45:14;;;;;;;5.43;2.80;;;21.30;99.90;;;;;;5068358;28;20251;-64
2023/07/02 10:47:41;;;;;;;5.40;1.83;;;21.30;99.90;;;;;;5066454;28;20048;-64
2023/07/02 10:50:18;;;;;;;2.80;1.33;;;21.30;99.90;;;;;;5067546;28;20044;-64
2023/07/02 10:52:46;;;;;;;3.72;1.58;;;21.20;99.90;;;;;;5067501;28;20037;-64
2023/07/02 10:55:24;;;;;;;2.67;1.63;;;21.30;99.90;;;;;;5068722;28;20127;-65
2023/07/02 10:58:04;;;;;;;2.17;1.27;;;21.30;99.90;;;;;;5068701;28;20609;-66
2023/07/02 11:00:31;;;;;;;2.80;1.23;;;21.40;99.90;;;;;;5067881;28;20101;-64
2023/07/02 11:02:58;;;;;;;2.67;1.42;;;21.40;99.90;;;;;;5068727;28;20539;-65
2023/07/02 11:05:26;;;;;;;3.50;1.23;;;21.30;99.90;;;;;;5066126;28;20042;-64
2023/07/02 11:08:08;;;;;;;6.60;2.25;;;21.00;99.90;;;;;;5067969;28;20127;-63
2023/07/02 11:10:35;;;;;;;6.13;1.70;;;20.20;99.90;;;;;;5067637;28;20036;-64
2023/07/02 11:13:15;;;;;;;13.80;3.63;;;19.50;99.90;;;;;;5067663;28;20053;-63
2023/07/02 11:15:42;;;;;;;34.25;5.50;;;18.90;99.90;;;;;;5068364;28;20040;-62
2023/07/02 11:18:13;;;;;;;10.13;3.70;;;18.30;99.90;;;;;;5066519;28;20589;-64
2023/07/02 11:20:42;;;;;;;17.60;4.03;;;17.80;99.90;;;;;;5065253;28;20036;-64
2023/07/02 11:23:23;;;;;;;9.43;2.35;;;17.60;99.90;;;;;;5067781;28;20109;-63
2023/07/02 11:25:59;;;;;;;7.32;2.85;;;17.30;99.90;;;;;;5066367;28;20083;-61
2023/07/02 11:28:27;;;;;;;8.95;2.45;;;17.10;99.90;;;;;;5066875;28;20126;-63
2023/07/02 11:30:55;;;;;;;16.38;4.28;;;17.20;99.90;;;;;;5066479;28;20047;-62
2023/07/02 11:33:40;;;;;;;12.07;3.58;;;17.30;99.90;;;;;;5067110;28;20048;-65
2023/07/02 11:36:19;;;;;;;7.47;3.10;;;17.40;99.90;;;;;;5065951;28;20044;-62
2023/07/02 11:38:47;;;;;;;9.98;4.35;;;17.60;99.90;;;;;;5066830;28;20048;-63
2023/07/02 11:41:14;;;;;;;7.43;2.35;;;18.00;99.90;;;;;;5066340;28;20055;-64
2023/07/02 11:43:41;;;;;;;15.98;3.50;;;18.30;99.90;;;;;;5066521;28;20036;-63
2023/07/02 11:46:08;;;;;;;8.98;3.30;;;18.50;99.90;;;;;;5066193;28;20052;-64
2023/07/02 11:48:35;;;;;;;5.28;2.53;;;18.90;99.90;;;;;;5066962;28;20560;-65
2023/07/02 11:51:01;;;;;;;4.72;1.45;;;19.10;99.90;;;;;;5065777;28;20743;-65
2023/07/02 11:53:28;;;;;;;3.63;1.65;;;19.10;99.90;;;;;;5066775;28;20469;-65
2023/07/02 11:55:55;;;;;;;4.57;1.00;;;19.30;99.90;;;;;;5066985;28;20123;-63
2023/07/02 11:58:22;;;;;;;1.50;0.85;;;19.40;99.90;;;;;;5066897;28;20584;-65
2023/07/02 12:00:49;;;;;;;7.10;1.60;;;19.60;99.90;;;;;;5067410;28;20381;-63
2023/07/02 12:03:16;;;;;;;2.92;1.42;;;19.80;99.90;;;;;;5066571;28;20094;-66
2023/07/02 12:05:43;;;;;;;3.28;1.25;;;19.90;99.90;;;;;;5066270;28;20055;-63
2023/07/02 12:08:09;;;;;;;4.03;1.30;;;19.80;99.90;;;;;;5066065;28;20099;-64
2023/07/02 12:10:36;;;;;;;8.77;1.65;;;19.70;99.90;;;;;;5066211;28;20105;-63
2023/07/02 12:13:04;;;;;;;3.90;1.27;;;19.50;99.90;;;;;;5066463;28;20044;-66
2023/07/02 12:15:31;;;;;;;2.03;1.27;;;19.30;99.90;;;;;;5066280;28;20151;-64
2023/07/02 12:17:58;;;;;;;3.38;1.90;;;19.20;99.90;;;;;;5067055;28;20431;-63
2023/07/02 12:20:25;;;;;;;1.90;1.63;;;19.10;99.90;;;;;;5066056;28;20044;-66
2023/07/02 12:22:52;;;;;;;3.05;2.70;;;19.10;99.90;;;;;;5064191;28;20108;-64
2023/07/02 12:25:19;;;;;;;2.70;1.67;;;19.10;99.90;;;;;;5067650;28;20048;-63
2023/07/02 12:27:46;;;;;;;6.38;2.78;;;19.20;99.90;;;;;;5068830;28;20919;-65
2023/07/02 12:30:17;;;;;;;9.80;2.22;;;19.10;99.90;;;;;;5068340;28;20072;-63
2023/07/02 12:32:44;;;;;;;2.65;1.70;;;19.10;99.90;;;;;;5068506;28;20044;-64
2023/07/02 12:35:11;;;;;;;2.17;1.80;;;19.00;99.90;;;;;;5067603;28;20070;-65
2023/07/02 12:37:46;;;;;;;4.38;2.33;;;18.90;99.90;;;;;;5067427;28;20693;-63
2023/07/02 12:40:14;;;;;;;6.28;2.25;;;18.90;99.90;;;;;;5066298;28;20047;-65
2023/07/02 12:42:42;;;;;;;3.30;1.45;;;18.90;99.90;;;;;;5067400;28;20368;-64
2023/07/02 12:45:10;;;;;;;3.95;1.58;;;18.80;99.90;;;;;;5067792;28;20067;-64
2023/07/02 12:47:41;;;;;;;1.65;1.55;;;18.80;99.90;;;;;;5067166;28;20165;-64
2023/07/02 12:50:09;;;;;;;2.70;1.70;;;18.80;99.90;;;;;;5066158;28;20169;-65
2023/07/02 12:52:36;;;;;;;1.83;1.52;;;18.90;99.90;;;;;;5067863;28;20048;-67